Time;durP1;ratioP1;P1;durP2;ratioP2;P2;SDS_P1;SDS_P2;PMS_P1;PMS_P2;Temp;Humidity;BMP_temperature;BMP_pressure;BME280_temperature;BME280_humidity;BME280_pressure;Samples;Min_cycle;Max_cycle;Signal;HPM_P1;HPM_P2
2024/04/19 00:03:53;;;;;;;;;;;;;;;5.43;100.00;94278.13;11194976;26;20261;-73
2024/04/19 00:08:53;;;;;;;;;;;;;;;5.39;100.00;94274.34;11202828;26;19936;-73
2024/04/19 00:13:54;;;;;;;;;;;;;;;5.39;100.00;94276.22;11253074;26;19957;-73
2024/04/19 00:18:54;;;;;;;;;;;;;;;5.35;100.00;94288.44;11257288;26;20255;-73
2024/04/19 00:23:54;;;;;;;;;;;;;;;5.44;100.00;94282.41;11256052;26;20376;-73
2024/04/19 00:28:54;;;;;;;;;;;;;;;5.46;100.00;94282.16;11247129;26;19938;-73
2024/04/19 00:33:55;;;;;;;;;;;;;;;5.43;100.00;94277.34;11256577;26;20391;-73
2024/04/19 00:38:55;;;;;;;;;;;;;;;5.35;100.00;94283.13;11251834;26;20006;-73
2024/04/19 00:43:55;;;;;;;;;;;;;;;5.25;100.00;94289.16;11221910;26;19929;-73
2024/04/19 00:48:55;;;;;;;;;;;;;;;5.22;100.00;94295.78;11251899;26;20429;-73
2024/04/19 00:53:56;;;;;;;;;;;;;;;5.16;100.00;94283.44;11190741;26;19932;-73
2024/04/19 00:58:56;;;;;;;;;;;;;;;5.09;100.00;94288.97;11215892;26;19928;-73
2024/04/19 01:03:56;;;;;;;;;;;;;;;5.07;100.00;94295.59;11255731;26;20708;-73
2024/04/19 01:08:56;;;;;;;;;;;;;;;4.97;100.00;94293.63;11222289;26;19933;-73
2024/04/19 01:13:57;;;;;;;;;;;;;;;4.95;100.00;94296.53;11253748;26;19936;-73
2024/04/19 01:18:57;;;;;;;;;;;;;;;4.68;100.00;94296.47;11255385;26;19928;-73
2024/04/19 01:24:00;;;;;;;;;;;;;;;4.76;100.00;94295.25;11220272;26;19936;-73
2024/04/19 01:29:00;;;;;;;;;;;;;;;4.57;100.00;94303.50;11254873;26;19997;-73
2024/04/19 01:34:01;;;;;;;;;;;;;;;4.53;100.00;94294.41;11255334;26;19929;-73
2024/04/19 01:39:01;;;;;;;;;;;;;;;4.42;100.00;94300.63;11254152;26;20401;-73
2024/04/19 01:44:01;;;;;;;;;;;;;;;4.19;100.00;94318.41;11251031;26;19928;-73
2024/04/19 01:49:02;;;;;;;;;;;;;;;4.17;100.00;94317.88;11254711;26;19929;-73
2024/04/19 01:54:02;;;;;;;;;;;;;;;4.09;100.00;94320.94;11250546;26;19928;-73
2024/04/19 01:59:02;;;;;;;;;;;;;;;3.96;100.00;94327.34;11250797;26;20001;-72
2024/04/19 02:04:03;;;;;;;;;;;;;;;3.91;100.00;94322.78;11239303;26;20361;-72
2024/04/19 02:09:04;;;;;;;;;;;;;;;3.84;100.00;94319.47;11247755;26;19928;-73
2024/04/19 02:14:04;;;;;;;;;;;;;;;3.73;100.00;94329.13;11253723;26;19960;-73
2024/04/19 02:19:04;;;;;;;;;;;;;;;3.63;100.00;94328.97;11252863;26;19997;-72
2024/04/19 02:24:06;;;;;;;;;;;;;;;3.49;100.00;94338.25;11249787;26;19997;-73
2024/04/19 02:34:26;;;;;;;;;;;;;;;3.38;100.00;94345.25;11205817;26;19953;-72
2024/04/19 02:39:26;;;;;;;;;;;;;;;3.36;100.00;94339.34;11252666;26;19928;-72
2024/04/19 02:44:26;;;;;;;;;;;;;;;3.51;100.00;94339.63;11250809;26;20346;-72
2024/04/19 02:49:27;;;;;;;;;;;;;;;3.61;100.00;94339.00;11245799;26;19933;-73
2024/04/19 02:54:27;;;;;;;;;;;;;;;3.55;100.00;94345.28;11227317;26;19932;-72
2024/04/19 02:59:27;;;;;;;;;;;;;;;3.36;100.00;94342.84;11199258;26;19928;-72
2024/04/19 03:04:27;;;;;;;;;;;;;;;3.37;100.00;94343.63;11249316;26;19997;-72
2024/04/19 03:09:28;;;;;;;;;;;;;;;3.43;100.00;94350.63;11244246;26;19961;-72
2024/04/19 03:14:28;;;;;;;;;;;;;;;3.59;100.00;94341.91;11215543;26;20401;-73
2024/04/19 03:19:28;;;;;;;;;;;;;;;3.66;100.00;94340.97;11228164;26;19941;-73
2024/04/19 03:24:28;;;;;;;;;;;;;;;3.61;100.00;94346.19;11195982;26;19933;-73
2024/04/19 03:29:29;;;;;;;;;;;;;;;3.67;100.00;94348.69;11210677;26;20286;-73
2024/04/19 03:34:29;;;;;;;;;;;;;;;3.68;100.00;94349.50;11219213;26;19939;-72
2024/04/19 03:39:29;;;;;;;;;;;;;;;3.66;100.00;94355.03;11196328;26;19940;-73
2024/04/19 03:49:48;;;;;;;;;;;;;;;3.69;100.00;94377.69;11177646;26;19929;-73
2024/04/19 03:54:49;;;;;;;;;;;;;;;3.66;100.00;94378.16;11215821;26;20228;-73
2024/04/19 03:59:49;;;;;;;;;;;;;;;3.78;100.00;94378.09;11218442;26;20633;-72
2024/04/19 04:04:49;;;;;;;;;;;;;;;3.85;100.00;94392.88;11247236;26;20321;-73
2024/04/19 04:09:49;;;;;;;;;;;;;;;3.93;100.00;94400.44;11215969;26;19928;-73
2024/04/19 04:14:50;;;;;;;;;;;;;;;3.94;100.00;94398.59;11194389;26;19945;-73
2024/04/19 04:19:50;;;;;;;;;;;;;;;4.06;100.00;94390.53;11247628;26;20248;-73
2024/04/19 04:24:50;;;;;;;;;;;;;;;4.10;100.00;94403.13;11251588;26;19963;-73
2024/04/19 04:29:51;;;;;;;;;;;;;;;3.99;100.00;94419.13;11252391;26;20034;-73
2024/04/19 04:34:51;;;;;;;;;;;;;;;4.04;100.00;94404.06;11253167;26;19928;-74
2024/04/19 04:39:51;;;;;;;;;;;;;;;4.05;100.00;94413.66;11241069;26;19997;-74
2024/04/19 04:44:52;;;;;;;;;;;;;;;4.02;100.00;94414.16;11255703;26;20699;-74
2024/04/19 04:49:52;;;;;;;;;;;;;;;4.02;100.00;94418.63;11254434;26;19936;-73
2024/04/19 04:54:52;;;;;;;;;;;;;;;4.48;100.00;94413.28;11246857;26;20342;-73
2024/04/19 04:59:52;;;;;;;;;;;;;;;5.01;100.00;94421.75;11230493;26;19928;-72
2024/04/19 05:04:52;;;;;;;;;;;;;;;5.24;100.00;94431.38;11212976;26;19935;-73
2024/04/19 05:09:53;;;;;;;;;;;;;;;5.11;100.00;94444.00;11196695;26;19940;-73
2024/04/19 05:14:53;;;;;;;;;;;;;;;5.58;100.00;94447.25;11180271;26;19936;-74
2024/04/19 05:19:53;;;;;;;;;;;;;;;5.86;100.00;94438.25;11219919;26;20655;-74
2024/04/19 05:24:54;;;;;;;;;;;;;;;6.02;100.00;94441.91;11220695;26;19940;-74
2024/04/19 05:29:54;;;;;;;;;;;;;;;6.19;100.00;94451.69;11238743;26;19935;-74
2024/04/19 05:34:54;;;;;;;;;;;;;;;6.12;100.00;94451.88;11252841;26;19928;-73
2024/04/19 05:39:54;;;;;;;;;;;;;;;5.80;100.00;94455.25;11248981;26;19928;-73
2024/04/19 05:44:55;;;;;;;;;;;;;;;5.56;100.00;94463.50;11249308;26;19936;-73
2024/04/19 05:49:55;;;;;;;;;;;;;;;5.85;100.00;94447.31;11252035;26;20342;-73
2024/04/19 05:54:55;;;;;;;;;;;;;;;6.18;100.00;94447.38;11247783;26;19928;-73
2024/04/19 05:59:55;;;;;;;;;;;;;;;6.61;100.00;94446.41;11206192;26;20002;-73
2024/04/19 06:04:55;;;;;;;;;;;;;;;6.94;100.00;94455.22;11206605;26;20408;-73
2024/04/19 06:09:57;;;;;;;;;;;;;;;7.01;100.00;94455.00;11251634;26;20184;-73
2024/04/19 06:14:58;;;;;;;;;;;;;;;7.47;100.00;94454.47;11252112;26;19948;-73
2024/04/19 06:19:58;;;;;;;;;;;;;;;7.43;100.00;94442.69;11204859;26;19941;-73
2024/04/19 06:24:59;;;;;;;;;;;;;;;7.92;100.00;94436.97;11250245;26;19936;-73
2024/04/19 06:29:59;;;;;;;;;;;;;;;8.19;100.00;94431.41;11252035;26;20221;-74
2024/04/19 06:34:59;;;;;;;;;;;;;;;8.45;100.00;94436.03;11218568;26;20000;-74
2024/04/19 06:39:59;;;;;;;;;;;;;;;8.72;100.00;94430.38;11247561;26;20332;-74
2024/04/19 06:45:00;;;;;;;;;;;;;;;9.65;100.00;94422.94;11250253;26;19928;-74
2024/04/19 06:50:00;;;;;;;;;;;;;;;10.62;100.00;94414.59;11252361;26;19934;-73
2024/04/19 06:55:00;;;;;;;;;;;;;;;11.42;100.00;94419.50;11251726;26;20588;-74
2024/04/19 07:00:00;;;;;;;;;;;;;;;12.41;93.73;94409.13;11248273;26;19994;-74
2024/04/19 07:05:01;;;;;;;;;;;;;;;12.47;89.83;94401.75;11246458;26;19928;-73
2024/04/19 07:10:01;;;;;;;;;;;;;;;13.92;75.92;94405.41;11225510;26;19928;-73
2024/04/19 07:15:02;;;;;;;;;;;;;;;14.95;63.04;94395.78;11251168;26;20355;-73
2024/04/19 07:20:02;;;;;;;;;;;;;;;16.36;53.19;94389.75;11244982;26;19928;-74
2024/04/19 07:25:03;;;;;;;;;;;;;;;18.45;44.95;94390.22;11203482;26;19936;-73
2024/04/19 07:30:03;;;;;;;;;;;;;;;19.77;41.40;94378.06;11194049;26;19935;-74
2024/04/19 07:35:04;;;;;;;;;;;;;;;20.69;37.65;94375.03;11244356;26;19940;-74
2024/04/19 07:40:04;;;;;;;;;;;;;;;21.73;36.77;94366.88;11241929;26;19929;-75
2024/04/19 07:45:04;;;;;;;;;;;;;;;22.18;34.12;94370.25;11244704;26;19936;-72
2024/04/19 07:50:05;;;;;;;;;;;;;;;21.87;33.14;94358.22;11243520;26;20366;-72
2024/04/19 07:55:05;;;;;;;;;;;;;;;22.54;31.88;94354.66;11233829;26;19933;-74
2024/04/19 08:00:11;;;;;;;;;;;;;;;22.12;30.83;94355.28;11214150;26;19929;-74
2024/04/19 08:05:11;;;;;;;;;;;;;;;22.60;30.15;94344.22;11232453;26;20351;-72
2024/04/19 08:10:15;;;;;;;;;;;;;;;23.37;30.40;94340.63;11223570;26;19928;-73
2024/04/19 08:15:16;;;;;;;;;;;;;;;23.60;29.09;94328.88;11178825;26;19933;-73
2024/04/19 08:20:16;;;;;;;;;;;;;;;24.45;28.11;94322.31;11217048;26;19939;-72
2024/04/19 08:25:17;;;;;;;;;;;;;;;24.94;27.23;94319.78;11251648;26;20336;-74
2024/04/19 08:30:18;;;;;;;;;;;;;;;24.49;27.35;94305.84;11181589;26;20229;-75
2024/04/19 08:35:18;;;;;;;;;;;;;;;24.82;24.92;94315.31;11192147;26;20355;-74
2024/04/19 08:40:19;;;;;;;;;;;;;;;24.86;24.54;94311.44;11223277;26;21215;-74
2024/04/19 08:45:20;;;;;;;;;;;;;;;23.10;28.51;94317.00;11252561;26;19928;-72
2024/04/19 08:50:21;;;;;;;;;;;;;;;21.79;28.17;94327.16;11254006;26;19929;-73
2024/04/19 08:55:22;;;;;;;;;;;;;;;21.78;26.98;94311.09;11254154;26;19939;-73
2024/04/19 09:00:22;;;;;;;;;;;;;;;21.73;28.69;94308.66;11254134;26;19929;-73
2024/04/19 09:05:23;;;;;;;;;;;;;;;22.29;26.99;94293.84;11253380;26;19948;-73
2024/04/19 09:10:24;;;;;;;;;;;;;;;22.08;26.49;94296.94;11217355;26;20356;-73
2024/04/19 09:15:27;;;;;;;;;;;;;;;21.91;26.60;94301.66;11196159;26;20245;-74
2024/04/19 09:20:28;;;;;;;;;;;;;;;21.84;24.73;94296.00;11236422;26;20261;-74
2024/04/19 09:25:28;;;;;;;;;;;;;;;24.05;24.60;94280.56;11251662;26;19960;-72
2024/04/19 09:30:28;;;;;;;;;;;;;;;24.33;24.25;94282.13;11252992;26;20308;-73
2024/04/19 09:35:30;;;;;;;;;;;;;;;24.30;23.31;94271.88;11238563;26;19997;-74
2024/04/19 09:40:32;;;;;;;;;;;;;;;20.07;27.85;94276.94;11247621;26;19933;-74
2024/04/19 09:45:41;;;;;;;;;;;;;;;18.77;30.19;94276.28;11242760;26;19929;-73
2024/04/19 09:50:45;;;;;;;;;;;;;;;22.06;26.46;94263.63;11244506;26;19932;-74
2024/04/19 09:55:55;;;;;;;;;;;;;;;25.67;24.36;94245.81;11247430;26;19936;-73
2024/04/19 10:00:56;;;;;;;;;;;;;;;27.74;21.51;94228.78;11247040;26;19928;-74
2024/04/19 10:05:57;;;;;;;;;;;;;;;30.55;20.02;94221.53;11245721;26;20346;-72
2024/04/19 10:10:57;;;;;;;;;;;;;;;30.10;19.89;94225.19;11250215;26;19936;-73
2024/04/19 10:15:58;;;;;;;;;;;;;;;30.92;18.12;94207.97;11250200;26;19928;-74
2024/04/19 10:20:59;;;;;;;;;;;;;;;31.24;18.96;94201.19;11252402;26;19929;-73
2024/04/19 10:25:59;;;;;;;;;;;;;;;31.08;18.59;94204.63;11234788;26;20002;-74
2024/04/19 10:30:59;;;;;;;;;;;;;;;27.10;22.84;94211.81;11248548;26;19939;-73
2024/04/19 10:36:01;;;;;;;;;;;;;;;26.90;22.30;94196.81;11251493;26;20001;-73
2024/04/19 10:41:03;;;;;;;;;;;;;;;24.81;22.66;94193.59;11251596;26;19940;-73
2024/04/19 10:46:04;;;;;;;;;;;;;;;24.95;23.76;94183.91;11240195;26;19935;-73
2024/04/19 10:51:04;;;;;;;;;;;;;;;27.40;21.61;94172.03;11228621;26;19935;-73
2024/04/19 10:56:05;;;;;;;;;;;;;;;28.42;19.51;94170.59;11218628;26;19941;-73
2024/04/19 11:01:06;;;;;;;;;;;;;;;28.36;19.19;94160.41;11244847;26;19993;-73
2024/04/19 11:06:06;;;;;;;;;;;;;;;28.69;19.34;94149.97;11212391;26;19928;-73
2024/04/19 11:11:06;;;;;;;;;;;;;;;28.59;20.37;94146.03;11250460;26;19928;-73
2024/04/19 11:16:07;;;;;;;;;;;;;;;26.36;21.60;94160.81;11246146;26;19935;-73
2024/04/19 11:21:07;;;;;;;;;;;;;;;23.31;23.00;94152.88;11250081;26;19928;-73
2024/04/19 11:26:07;;;;;;;;;;;;;;;20.19;26.30;94150.59;11187338;26;19936;-73
2024/04/19 11:31:09;;;;;;;;;;;;;;;18.05;28.58;94164.16;11247528;26;20391;-72
2024/04/19 11:36:11;;;;;;;;;;;;;;;17.23;30.38;94170.84;11253052;26;19935;-73
2024/04/19 11:41:13;;;;;;;;;;;;;;;16.61;30.18;94166.84;11232198;26;19928;-73
2024/04/19 11:46:23;;;;;;;;;;;;;;;16.84;30.73;94157.31;11246824;26;20733;-72
2024/04/19 11:51:25;;;;;;;;;;;;;;;16.65;31.37;94162.34;11256851;26;19928;-73
2024/04/19 11:56:25;;;;;;;;;;;;;;;15.56;34.14;94162.38;11223601;26;19935;-72
2024/04/19 12:01:25;;;;;;;;;;;;;;;16.00;35.10;94146.88;11233878;26;19929;-72
2024/04/19 12:06:26;;;;;;;;;;;;;;;16.15;35.44;94142.88;11240667;26;20019;-72
2024/04/19 12:11:26;;;;;;;;;;;;;;;16.25;33.28;94133.59;11255877;26;19997;-72
2024/04/19 12:16:26;;;;;;;;;;;;;;;16.27;34.70;94125.94;11255502;26;19929;-72
2024/04/19 12:21:27;;;;;;;;;;;;;;;16.31;34.72;94120.66;11255173;26;20359;-72
2024/04/19 12:26:27;;;;;;;;;;;;;;;15.85;33.91;94112.97;11224977;26;20001;-72
2024/04/19 12:31:27;;;;;;;;;;;;;;;16.04;33.74;94103.69;11208066;26;19965;-73
2024/04/19 12:36:27;;;;;;;;;;;;;;;16.46;33.65;94097.63;11243998;26;20257;-73
2024/04/19 12:41:31;;;;;;;;;;;;;;;16.80;36.68;94093.97;11251236;26;19928;-73
2024/04/19 12:46:31;;;;;;;;;;;;;;;16.71;35.98;94093.97;11248452;26;19959;-73
2024/04/19 12:51:32;;;;;;;;;;;;;;;16.72;35.64;94086.66;11193855;26;20291;-74
2024/04/19 12:56:33;;;;;;;;;;;;;;;16.55;35.74;94082.91;11251958;26;19956;-73
2024/04/19 13:01:33;;;;;;;;;;;;;;;16.88;35.14;94074.16;11255080;26;19996;-73
2024/04/19 13:06:34;;;;;;;;;;;;;;;16.30;35.47;94083.81;11225180;26;19932;-73
2024/04/19 13:11:34;;;;;;;;;;;;;;;16.23;36.73;94078.91;11254466;26;19929;-73
2024/04/19 13:16:34;;;;;;;;;;;;;;;16.50;35.22;94071.44;11253914;26;19928;-74
2024/04/19 13:21:35;;;;;;;;;;;;;;;16.40;35.37;94072.63;11253222;26;19997;-73
2024/04/19 13:26:35;;;;;;;;;;;;;;;15.84;36.46;94069.94;11252722;26;19935;-73
2024/04/19 13:31:35;;;;;;;;;;;;;;;15.96;37.35;94061.91;11254054;26;19935;-74
2024/04/19 13:36:36;;;;;;;;;;;;;;;16.01;36.94;94056.34;11254239;26;20001;-73
2024/04/19 13:41:37;;;;;;;;;;;;;;;15.98;36.20;94048.06;11253033;26;19929;-73
2024/04/19 13:46:37;;;;;;;;;;;;;;;16.09;35.42;94045.78;11253934;26;20719;-73
2024/04/19 13:51:37;;;;;;;;;;;;;;;15.34;35.19;94039.56;11253943;26;19948;-73
2024/04/19 13:56:37;;;;;;;;;;;;;;;15.34;36.03;94041.47;11243736;26;20245;-73
2024/04/19 14:01:38;;;;;;;;;;;;;;;15.18;36.33;94041.97;11210034;26;19928;-74
2024/04/19 14:06:38;;;;;;;;;;;;;;;14.50;39.15;94028.03;11252541;26;20248;-73
2024/04/19 14:11:39;;;;;;;;;;;;;;;14.70;39.74;94030.16;11261934;26;19941;-73
2024/04/19 14:16:39;;;;;;;;;;;;;;;14.74;37.17;94030.31;11253736;26;19929;-73
2024/04/19 14:21:41;;;;;;;;;;;;;;;14.81;37.35;94025.22;11207351;26;19940;-73
2024/04/19 14:26:43;;;;;;;;;;;;;;;14.88;37.70;94018.56;11226168;26;21496;-73
2024/04/19 14:31:44;;;;;;;;;;;;;;;15.04;36.58;94019.66;11191415;26;19939;-72
2024/04/19 14:36:44;;;;;;;;;;;;;;;15.07;37.50;94008.22;11251039;26;19935;-72
2024/04/19 14:41:44;;;;;;;;;;;;;;;14.93;37.93;94002.16;11251241;26;20000;-73
2024/04/19 14:46:45;;;;;;;;;;;;;;;14.76;37.75;93994.84;11216279;26;20672;-73
2024/04/19 14:51:47;;;;;;;;;;;;;;;14.78;38.99;93987.22;11248543;26;19936;-73
2024/04/19 14:56:48;;;;;;;;;;;;;;;14.56;39.01;93998.94;11250943;26;19994;-73
2024/04/19 15:01:48;;;;;;;;;;;;;;;14.54;39.15;93999.25;11251584;26;20720;-73
2024/04/19 15:06:48;;;;;;;;;;;;;;;14.30;39.88;93997.78;11225907;26;19929;-73
2024/04/19 15:11:48;;;;;;;;;;;;;;;14.25;40.55;93989.81;11232288;26;19929;-72
2024/04/19 15:16:49;;;;;;;;;;;;;;;14.29;41.12;93988.06;11250388;26;20035;-73
2024/04/19 15:21:49;;;;;;;;;;;;;;;14.28;42.15;93991.09;11246610;26;19928;-73
2024/04/19 15:26:50;;;;;;;;;;;;;;;14.18;42.51;93997.59;11238748;26;20248;-73
2024/04/19 15:31:50;;;;;;;;;;;;;;;13.97;43.16;94002.78;11192736;26;19928;-72
2024/04/19 15:36:51;;;;;;;;;;;;;;;13.99;42.78;94003.25;11217448;26;19932;-72
2024/04/19 15:41:52;;;;;;;;;;;;;;;13.83;42.71;94008.28;11247185;26;20268;-72
2024/04/19 15:46:52;;;;;;;;;;;;;;;13.74;43.88;94010.13;11243920;26;19928;-72
2024/04/19 15:51:52;;;;;;;;;;;;;;;13.50;44.70;94012.06;11248015;26;20352;-72
2024/04/19 15:56:52;;;;;;;;;;;;;;;13.10;44.51;94017.38;11249456;26;19940;-73
2024/04/19 16:01:53;;;;;;;;;;;;;;;12.93;44.49;94015.31;11204633;26;19956;-73
2024/04/19 16:06:53;;;;;;;;;;;;;;;13.11;45.24;94018.16;11248232;26;19932;-73
2024/04/19 16:11:53;;;;;;;;;;;;;;;13.05;45.60;94022.88;11249603;26;19932;-74
2024/04/19 16:16:53;;;;;;;;;;;;;;;12.87;46.15;94023.84;11239910;26;19939;-74
2024/04/19 16:21:53;;;;;;;;;;;;;;;12.71;47.07;94029.59;11249639;26;20339;-74
2024/04/19 16:26:54;;;;;;;;;;;;;;;12.87;46.46;94019.25;11215496;26;19936;-74
2024/04/19 16:31:54;;;;;;;;;;;;;;;12.88;47.53;94025.41;11256655;26;19940;-73
2024/04/19 16:36:54;;;;;;;;;;;;;;;12.82;48.60;94036.34;11221121;26;19928;-72
2024/04/19 16:41:55;;;;;;;;;;;;;;;12.75;49.73;94035.16;11251018;26;19940;-72
2024/04/19 16:46:55;;;;;;;;;;;;;;;12.78;50.05;94043.44;11252890;26;19935;-73
2024/04/19 16:51:55;;;;;;;;;;;;;;;12.66;52.93;94043.16;11222512;26;20450;-73
2024/04/19 16:56:55;;;;;;;;;;;;;;;12.58;51.21;94049.28;11224102;26;19940;-73
2024/04/19 17:01:56;;;;;;;;;;;;;;;12.65;51.71;94049.66;11254987;26;19944;-73
2024/04/19 17:06:56;;;;;;;;;;;;;;;12.58;53.13;94058.16;11252888;26;19935;-73
2024/04/19 17:11:59;;;;;;;;;;;;;;;12.61;51.90;94059.44;11223149;26;19940;-73
2024/04/19 17:16:59;;;;;;;;;;;;;;;12.46;52.07;94069.47;11239106;26;19936;-73
2024/04/19 17:21:59;;;;;;;;;;;;;;;12.25;53.43;94065.56;11254845;26;19997;-72
2024/04/19 17:26:59;;;;;;;;;;;;;;;12.18;54.20;94065.16;11251467;26;19934;-73
2024/04/19 17:32:00;;;;;;;;;;;;;;;12.20;54.46;94068.38;11248397;26;19932;-73
2024/04/19 17:37:00;;;;;;;;;;;;;;;12.04;54.77;94071.38;11253993;26;19997;-73
2024/04/19 17:42:00;;;;;;;;;;;;;;;12.07;58.57;94073.47;11253981;26;20359;-72
2024/04/19 17:47:00;;;;;;;;;;;;;;;11.89;57.95;94066.22;11253918;26;20008;-74
2024/04/19 17:52:01;;;;;;;;;;;;;;;11.92;57.15;94071.81;11253856;26;19937;-72
2024/04/19 17:57:01;;;;;;;;;;;;;;;11.79;58.83;94070.72;11221620;26;20808;-73
2024/04/19 18:02:03;;;;;;;;;;;;;;;11.59;60.21;94081.81;11204851;26;19936;-74
2024/04/19 18:07:03;;;;;;;;;;;;;;;11.25;63.26;94094.47;11224872;26;19996;-73
2024/04/19 18:12:04;;;;;;;;;;;;;;;11.12;62.96;94095.19;11254050;26;20410;-73
2024/04/19 18:17:04;;;;;;;;;;;;;;;11.02;63.70;94090.00;11253511;26;19928;-73
2024/04/19 18:22:07;;;;;;;;;;;;;;;11.05;61.88;94100.16;11252320;26;19928;-73
2024/04/19 18:27:07;;;;;;;;;;;;;;;11.14;63.77;94100.31;11252630;26;19936;-73
2024/04/19 18:32:07;;;;;;;;;;;;;;;10.97;60.49;94095.44;11247874;26;19994;-73
2024/04/19 18:37:09;;;;;;;;;;;;;;;11.06;61.92;94091.78;11252216;26;20446;-73
2024/04/19 18:42:10;;;;;;;;;;;;;;;11.03;63.52;94087.00;11207303;26;20636;-73
2024/04/19 18:47:10;;;;;;;;;;;;;;;11.00;63.21;94089.50;11247917;26;19928;-73
2024/04/19 18:52:10;;;;;;;;;;;;;;;11.11;66.32;94090.94;11252199;26;19928;-73
2024/04/19 18:57:10;;;;;;;;;;;;;;;11.19;64.44;94087.59;11216419;26;19935;-73
2024/04/19 19:02:11;;;;;;;;;;;;;;;11.26;66.57;94093.38;11251283;26;19936;-73
2024/04/19 19:07:11;;;;;;;;;;;;;;;11.32;67.21;94096.00;11251450;26;19929;-72
2024/04/19 19:12:11;;;;;;;;;;;;;;;11.32;63.20;94086.03;11216162;26;20032;-73
2024/04/19 19:17:11;;;;;;;;;;;;;;;11.16;63.44;94090.84;11239707;26;19964;-72
2024/04/19 19:22:12;;;;;;;;;;;;;;;11.13;61.45;94096.03;11205667;26;20282;-72
2024/04/19 19:27:13;;;;;;;;;;;;;;;11.18;62.43;94098.63;11251319;26;19929;-73
2024/04/19 19:32:14;;;;;;;;;;;;;;;11.08;62.30;94099.59;11251661;26;19936;-73
2024/04/19 19:37:14;;;;;;;;;;;;;;;11.06;63.42;94101.75;11251774;26;19929;-73
2024/04/19 19:42:14;;;;;;;;;;;;;;;10.84;64.25;94096.97;11249968;26;20373;-73
2024/04/19 19:47:15;;;;;;;;;;;;;;;10.92;65.49;94099.00;11208814;26;19968;-73
2024/04/19 19:52:15;;;;;;;;;;;;;;;10.91;64.51;94092.00;11210474;26;19928;-73
2024/04/19 19:57:15;;;;;;;;;;;;;;;10.75;65.44;94096.81;11254794;26;19933;-73
2024/04/19 20:07:34;;;;;;;;;;;;;;;10.63;67.11;94088.38;11255349;26;20334;-72
2024/04/19 20:12:34;;;;;;;;;;;;;;;10.54;66.63;94091.72;11255671;26;19932;-72
2024/04/19 20:17:35;;;;;;;;;;;;;;;10.59;69.89;94082.78;11257177;26;19937;-72
2024/04/19 20:22:35;;;;;;;;;;;;;;;10.57;66.52;94076.91;11251017;26;19935;-72
2024/04/19 20:27:36;;;;;;;;;;;;;;;10.49;66.53;94083.69;11256273;26;19952;-72
2024/04/19 20:32:37;;;;;;;;;;;;;;;10.63;70.19;94070.34;11220901;26;20678;-72
2024/04/19 20:37:37;;;;;;;;;;;;;;;10.80;67.35;94072.56;11253445;26;19997;-72
2024/04/19 20:42:37;;;;;;;;;;;;;;;10.83;64.26;94063.91;11255848;26;19936;-72
2024/04/19 20:47:39;;;;;;;;;;;;;;;10.63;64.65;94062.28;11256016;26;20355;-72
2024/04/19 20:52:40;;;;;;;;;;;;;;;10.53;66.50;94049.81;11255153;26;19940;-72
2024/04/19 20:57:40;;;;;;;;;;;;;;;10.60;65.86;94049.44;11252901;26;19935;-72
2024/04/19 21:02:41;;;;;;;;;;;;;;;10.51;66.58;94051.19;11220766;26;20337;-72
2024/04/19 21:07:42;;;;;;;;;;;;;;;10.47;67.05;94053.66;11254565;26;19928;-72
2024/04/19 21:12:42;;;;;;;;;;;;;;;10.50;66.11;94053.06;11248906;26;20256;-72
2024/04/19 21:17:43;;;;;;;;;;;;;;;10.53;66.55;94049.00;11229424;26;20358;-72
2024/04/19 21:22:43;;;;;;;;;;;;;;;10.40;66.15;94048.63;11188315;26;19937;-72
2024/04/19 21:27:44;;;;;;;;;;;;;;;10.52;67.58;94040.16;11234705;26;19928;-72
2024/04/19 21:32:44;;;;;;;;;;;;;;;10.66;67.03;94034.88;11255727;26;20372;-72
2024/04/19 21:37:45;;;;;;;;;;;;;;;10.71;70.58;94026.72;11226440;26;19929;-72
2024/04/19 21:42:48;;;;;;;;;;;;;;;10.72;67.70;94031.00;11239971;26;19932;-72
2024/04/19 21:47:49;;;;;;;;;;;;;;;10.75;66.11;94027.72;11254655;26;19936;-72
2024/04/19 21:52:50;;;;;;;;;;;;;;;10.51;63.79;94027.03;11254828;26;20320;-72
2024/04/19 21:57:51;;;;;;;;;;;;;;;10.58;66.02;94022.09;11220099;26;19933;-72
2024/04/19 22:02:51;;;;;;;;;;;;;;;10.53;64.36;94019.47;11254784;26;19936;-72
2024/04/19 22:07:52;;;;;;;;;;;;;;;10.31;66.25;94018.13;11252078;26;20401;-72
2024/04/19 22:12:52;;;;;;;;;;;;;;;10.31;66.87;94007.38;11251782;26;19940;-72
2024/04/19 22:17:52;;;;;;;;;;;;;;;10.19;67.81;94020.41;11252207;26;19940;-72
2024/04/19 22:22:52;;;;;;;;;;;;;;;10.07;69.83;94018.97;11253261;26;19928;-73
2024/04/19 22:27:53;;;;;;;;;;;;;;;10.07;71.26;94015.44;11252862;26;19932;-72
2024/04/19 22:32:53;;;;;;;;;;;;;;;10.08;69.69;94009.78;11253030;26;19932;-72
2024/04/19 22:37:53;;;;;;;;;;;;;;;10.09;68.47;93999.88;11252866;26;19948;-72
2024/04/19 22:42:56;;;;;;;;;;;;;;;10.00;69.96;94002.38;11252249;26;19932;-72
2024/04/19 22:47:58;;;;;;;;;;;;;;;10.08;69.31;94001.75;11251659;26;20036;-72
2024/04/19 22:52:59;;;;;;;;;;;;;;;10.13;70.64;93995.53;11249881;26;20507;-72
2024/04/19 22:57:59;;;;;;;;;;;;;;;10.15;71.41;93987.97;11220711;26;19935;-72
2024/04/19 23:02:59;;;;;;;;;;;;;;;10.28;74.55;93983.75;11251970;26;20364;-72
2024/04/19 23:08:00;;;;;;;;;;;;;;;10.42;71.54;93970.44;11219881;26;19928;-72
2024/04/19 23:13:00;;;;;;;;;;;;;;;10.45;72.67;93961.00;11249792;26;19935;-72
2024/04/19 23:18:00;;;;;;;;;;;;;;;10.36;71.95;93953.59;11250264;26;19928;-72
2024/04/19 23:23:00;;;;;;;;;;;;;;;10.12;73.12;93958.19;11229037;26;19935;-72
2024/04/19 23:28:01;;;;;;;;;;;;;;;9.78;79.41;93964.53;11251162;26;20290;-72
2024/04/19 23:33:01;;;;;;;;;;;;;;;9.68;82.85;93960.88;11225669;26;20046;-72
2024/04/19 23:38:01;;;;;;;;;;;;;;;9.59;86.27;93962.63;11258852;26;19954;-72
2024/04/19 23:43:01;;;;;;;;;;;;;;;9.34;89.83;93952.97;11254828;26;19941;-72
2024/04/19 23:48:02;;;;;;;;;;;;;;;9.29;92.86;93953.81;11257745;26;19933;-72
2024/04/19 23:53:02;;;;;;;;;;;;;;;9.08;94.67;93947.84;11257079;26;20424;-73
2024/04/19 23:58:02;;;;;;;;;;;;;;;9.04;95.92;93947.63;11258231;26;20376;-73
